メインページ
METAR-TAF:

METAR-TAF

空港 :

ヒロ国際空港

ヒロ, ハワイ州, アメリカ合衆国

緯度: 19-43-20N, 経度: 155-03-21W, 海抜: 11m

現時点の気象観測

当レポートは29分前の00:53(UTC)に作成
北東の風 5kt
気温 28°C
湿度 66%
気圧 1012 hPa
視程: 16.1km
高度4400ftの千切れ雲あり

METAR: PHTO 190053Z 05005KT 10SM BKN044 28/21 A2987 RMK AO2 RAB06E22 SLP113 P0000 T02780211

時間: 15:22 (01:22 UTC)

予報

当レポートは1時間49分前の23:33(UTC)に作成
予報は19日の 00時(UTC)から 19日の 24時(UTC)まで有効
変向風 5kt
視程: 10km
高度2500ftの雲は散在している
高度3500ftの雲は散在している
高度6000ftの千切れ雲あり
19日の 0600時(UTC)から
西/南西の風 5kt
視程: 10km
高度2500ftの雲は散在している
高度3500ftの千切れ雲あり
高度6000ftの曇り
近辺でにわか雨
19日の 2000時(UTC)から
東/南東の風 8kt
視程: 8.0km
高度2500ftの雲は散在している
高度3500ftの曇り
弱いにわか雨

TAF: PHTO 182333Z 1900/1924 VRB05KT P6SM SCT025 SCT035 BKN060 FM190600 24005KT P6SM VCSH SCT025 BKN035 OVC060 FM192000 12008KT 5SM -SHRA SCT025 OVC035

4,000以上の空港の気象観測と天気予報(METAR報とTAF報)

利用可能な観測所は地図上に黄色い丸と赤い丸で示す。

丸の上にカーソルを重ねると観測所名を参照できる。

次にクリックすると気象観測と天気予報を参照できる。

マップの切り替え:黒色「×」印の緑ボタンをクリックして拡大、「-」印の緑ボタンをクリックして縮小、緑色の三角印をクリックして隣りの地図に切り替え


METAR-TAF: